Capitol Logistics 232


KPHX
Phoenix Sky Harbor International Airport
Phoenix, Arizona, US
KSMF
Sacramento International Airport
Sacramento, California, US

Activity Log

Date Flight Route Aircraft Duration
05/18/2020 CPX232 KPHX/25R CHILY4 IGM TACUS DONNR SLMMR3 KSMF/ZIMAM.R16RZ B763 1h 49m
02/24/2020 CPX232 KPHX/07L CHILY4 IGM TACUS DONNR SLMMR3 KSMF/I34L B763 2h 04m
02/27/2019 CPX232 ZEPER1 SISIE DOVEE BTY KENNO DONNR SLMMR3 B763 2h 06m

Route Details

Aircraft Information
Primary: Boeing 767-300BDSF
Backup: Not Available
Route Data
Distance: 562nm
Sched. Duration: 1h 50m
Avg. Duration: 1h 86m (+37m)
Times Flown: 3
Recm'd Route: ZEPER1 SISIE DOVEE BTY KENNO DONNR SLMMR3
Planned Altitude: 36,000ft
Origin Wx: KPHX 061151Z 09007KT 10SM SCT120 29/02 A2977 RMK AO2 SLP057 T02940017 10378 20294 53012 $
Dest. Wx: KSMF 061053Z 16007KT 10SM CLR 18/10 A2983 RMK AO2 SLP101 T01780100
Notes:

Financial History
Total Freight: 325,709lbs
Average Load: 108,570lbs/flt
Fuel Used: 60,100lbs
Avg. Fuel Used: 20,033lbs/flt
Fuel Expense: $48,681
Avg. Fuel Expense: $16,227
Avg. Fuel Cost: $0.81/lbs
Total Gross Income: $442,654
Pilot Pay: $727
Total Expenses: $47,963
Total Revenue: $344,542
Average Revenue: $147,551.45